createdAt,value
2023-02-06T00:00:57.210Z,59.42
2023-02-06T00:03:28.456Z,59.25
2023-02-06T00:05:57.418Z,59.09
2023-02-06T00:08:27.229Z,59.13
2023-02-06T00:10:54.789Z,59.02
2023-02-06T00:13:30.564Z,59.13
2023-02-06T00:15:57.520Z,59.17
2023-02-06T00:18:26.915Z,59.18
2023-02-06T00:20:54.035Z,59.19
2023-02-06T00:23:24.198Z,59.32
2023-02-06T00:25:51.052Z,59.32
2023-02-06T00:28:18.391Z,59.18
2023-02-06T00:30:47.311Z,59.42
2023-02-06T00:33:17.360Z,59.50
2023-02-06T00:35:45.026Z,59.66
2023-02-06T00:38:15.135Z,59.66
2023-02-06T00:40:42.012Z,59.68
2023-02-06T00:43:08.944Z,59.83
2023-02-06T00:45:37.261Z,60.02
2023-02-06T00:48:04.527Z,60.21
2023-02-06T00:50:33.016Z,60.40
2023-02-06T00:53:00.537Z,60.55
2023-02-06T00:55:27.369Z,60.94
2023-02-06T00:57:55.296Z,61.13
2023-02-06T01:00:22.140Z,61.38
2023-02-06T01:02:49.022Z,61.43
2023-02-06T01:05:16.228Z,61.69
2023-02-06T01:07:45.896Z,61.76
2023-02-06T01:10:12.868Z,62.01
2023-02-06T01:12:40.238Z,62.29
2023-02-06T01:15:09.493Z,62.52
2023-02-06T01:17:38.961Z,62.73
2023-02-06T01:20:10.116Z,62.97
2023-02-06T01:22:37.370Z,63.07
2023-02-06T01:25:06.118Z,63.27
2023-02-06T01:27:37.055Z,63.55
2023-02-06T01:30:08.348Z,63.64
2023-02-06T01:32:37.425Z,63.87
2023-02-06T01:35:09.462Z,63.84
2023-02-06T01:37:36.407Z,63.72
2023-02-06T01:40:05.974Z,63.86
2023-02-06T01:42:37.380Z,63.79
2023-02-06T01:45:26.165Z,63.85
2023-02-06T01:48:05.928Z,63.87
2023-02-06T01:50:43.183Z,63.84
2023-02-06T01:53:10.034Z,63.84
2023-02-06T01:55:37.490Z,64.07
2023-02-06T01:58:05.310Z,63.92
2023-02-06T02:00:34.710Z,63.90
2023-02-06T02:03:03.341Z,63.86
2023-02-06T02:05:32.613Z,63.92
2023-02-06T02:08:15.656Z,63.97
2023-02-06T02:10:42.548Z,63.97
2023-02-06T02:13:09.453Z,63.83
2023-02-06T02:15:49.197Z,63.83
2023-02-06T02:18:41.015Z,63.80
2023-02-06T02:21:13.894Z,63.69
2023-02-06T02:23:51.993Z,63.60
2023-02-06T02:26:37.594Z,63.74
2023-02-06T02:29:32.199Z,63.79
2023-02-06T02:32:25.322Z,63.71
2023-02-06T02:35:12.405Z,63.67
2023-02-06T02:38:19.072Z,63.66
2023-02-06T02:40:56.666Z,63.67
2023-02-06T02:43:44.292Z,63.76
2023-02-06T02:46:22.435Z,63.65
2023-02-06T02:48:51.198Z,63.58
2023-02-06T02:51:18.132Z,63.47
2023-02-06T02:53:46.108Z,63.53
2023-02-06T02:56:22.360Z,63.47
2023-02-06T02:58:58.403Z,63.38
2023-02-06T03:01:35.263Z,63.32
2023-02-06T03:04:12.609Z,63.40
2023-02-06T03:06:56.023Z,63.22
2023-02-06T03:09:52.621Z,63.03
2023-02-06T03:12:39.522Z,62.90
2023-02-06T03:15:26.713Z,62.63
2023-02-06T03:18:16.206Z,62.70
2023-02-06T03:20:46.789Z,62.64
2023-02-06T03:23:21.418Z,62.37
2023-02-06T03:25:50.778Z,62.36
2023-02-06T03:28:20.787Z,62.25
2023-02-06T03:30:48.959Z,62.01
2023-02-06T03:33:17.176Z,62.04
2023-02-06T03:35:44.405Z,61.96
2023-02-06T03:38:11.375Z,62.08
2023-02-06T03:40:39.349Z,61.99
2023-02-06T03:43:06.480Z,62.27
2023-02-06T03:45:39.896Z,62.09
2023-02-06T03:48:10.307Z,62.12
2023-02-06T03:50:39.317Z,62.27
2023-02-06T03:53:06.876Z,62.18
2023-02-06T03:55:36.617Z,62.07
2023-02-06T03:58:06.162Z,62.05
2023-02-06T04:00:33.819Z,61.96
2023-02-06T04:03:00.728Z,61.94
2023-02-06T04:05:27.663Z,61.84
2023-02-06T04:07:56.974Z,61.73
2023-02-06T04:10:26.167Z,61.94
2023-02-06T04:12:54.321Z,61.77
2023-02-06T04:15:21.710Z,61.72
2023-02-06T04:17:59.836Z,61.80
2023-02-06T04:20:28.668Z,61.76
2023-02-06T04:22:56.211Z,61.86
2023-02-06T04:25:23.044Z,61.90
2023-02-06T04:27:50.785Z,61.84
2023-02-06T04:30:17.900Z,61.63
2023-02-06T04:32:45.848Z,61.70
2023-02-06T04:35:12.741Z,61.89
2023-02-06T04:37:40.972Z,61.63
2023-02-06T04:40:08.108Z,61.76
2023-02-06T04:42:35.773Z,61.81
2023-02-06T04:45:03.011Z,61.71
2023-02-06T04:47:30.190Z,61.74
2023-02-06T04:49:57.140Z,61.62
2023-02-06T04:52:24.219Z,61.64
2023-02-06T04:54:51.299Z,61.77
2023-02-06T04:57:18.466Z,61.86
2023-02-06T04:59:45.421Z,61.66
2023-02-06T05:02:12.355Z,61.77
2023-02-06T05:04:39.278Z,61.89
2023-02-06T05:07:06.626Z,61.78
2023-02-06T05:09:33.487Z,61.82
2023-02-06T05:12:00.411Z,61.75
2023-02-06T05:14:28.174Z,61.88
2023-02-06T05:16:56.647Z,61.92
2023-02-06T05:19:23.624Z,61.85
2023-02-06T05:21:50.504Z,61.98
2023-02-06T05:24:18.002Z,61.92
2023-02-06T05:26:46.154Z,62.02
2023-02-06T05:29:13.039Z,61.84
2023-02-06T05:31:39.995Z,61.85
2023-02-06T05:34:08.703Z,61.90
2023-02-06T05:36:35.745Z,61.89
2023-02-06T05:39:06.935Z,61.93
2023-02-06T05:41:33.876Z,61.94
2023-02-06T05:44:00.877Z,61.88
2023-02-06T05:46:27.774Z,61.81
2023-02-06T05:48:54.838Z,61.88
2023-02-06T05:51:21.628Z,61.81
2023-02-06T05:53:50.082Z,61.78
2023-02-06T05:56:17.163Z,61.64
2023-02-06T05:58:46.802Z,61.64
2023-02-06T06:01:13.688Z,61.69
2023-02-06T06:03:42.676Z,61.69
2023-02-06T06:06:09.404Z,61.58
2023-02-06T06:08:36.730Z,61.58
2023-02-06T06:11:03.722Z,61.29
2023-02-06T06:13:30.688Z,61.46
2023-02-06T06:15:57.477Z,61.45
2023-02-06T06:18:24.759Z,61.32
2023-02-06T06:20:51.563Z,61.12
2023-02-06T06:23:18.770Z,61.26
2023-02-06T06:25:46.594Z,61.22
2023-02-06T06:28:13.427Z,61.19
2023-02-06T06:30:40.229Z,60.99
2023-02-06T06:33:07.063Z,60.91
2023-02-06T06:35:34.492Z,60.72
2023-02-06T06:38:01.584Z,60.66
2023-02-06T06:40:29.237Z,60.79
2023-02-06T06:42:56.157Z,60.60
2023-02-06T06:45:22.962Z,60.43
2023-02-06T06:47:49.739Z,60.09
2023-02-06T06:50:16.617Z,60.29
2023-02-06T06:52:43.773Z,60.14
2023-02-06T06:55:10.797Z,59.90
2023-02-06T06:57:38.105Z,59.81
2023-02-06T07:00:05.457Z,59.61
2023-02-06T07:02:33.086Z,59.41
2023-02-06T07:05:00.296Z,59.15
2023-02-06T07:07:27.122Z,59.16
2023-02-06T07:09:54.052Z,58.98
2023-02-06T07:12:23.619Z,58.80
2023-02-06T07:14:50.637Z,58.67
2023-02-06T07:17:18.065Z,58.64
2023-02-06T07:19:52.072Z,58.49
2023-02-06T07:22:19.634Z,58.36
2023-02-06T07:24:47.242Z,58.35
2023-02-06T07:27:14.106Z,58.51
2023-02-06T07:29:41.097Z,58.32
2023-02-06T07:32:10.376Z,58.13
2023-02-06T07:34:37.404Z,57.90
2023-02-06T07:37:04.329Z,58.07
2023-02-06T07:39:32.021Z,57.66
2023-02-06T07:41:58.899Z,57.80
2023-02-06T07:44:31.515Z,57.46
2023-02-06T07:46:58.554Z,57.32
2023-02-06T07:49:26.736Z,57.42
2023-02-06T07:51:53.574Z,57.36
2023-02-06T07:54:21.046Z,57.25
2023-02-06T07:56:47.877Z,57.06
2023-02-06T07:59:14.687Z,57.17
2023-02-06T08:01:42.746Z,57.22
2023-02-06T08:04:10.395Z,56.89
2023-02-06T08:06:41.018Z,56.64
2023-02-06T08:09:12.941Z,56.73
2023-02-06T08:11:47.042Z,56.55
2023-02-06T08:14:13.801Z,56.61
2023-02-06T08:16:40.709Z,56.74
2023-02-06T08:19:10.316Z,56.50
2023-02-06T08:21:37.498Z,56.36
2023-02-06T08:24:05.154Z,56.04
2023-02-06T08:26:32.924Z,55.49
2023-02-06T08:29:01.502Z,55.03
2023-02-06T08:31:30.646Z,54.76
2023-02-06T08:33:57.681Z,54.84
2023-02-06T08:36:25.024Z,54.57
2023-02-06T08:38:52.036Z,54.17
2023-02-06T08:41:21.838Z,54.11
2023-02-06T08:43:50.196Z,53.99
2023-02-06T08:46:17.406Z,53.60
2023-02-06T08:48:44.386Z,53.35
2023-02-06T08:51:11.255Z,53.02
2023-02-06T08:53:39.169Z,53.11
2023-02-06T08:56:10.567Z,53.21
2023-02-06T08:58:38.221Z,52.77
2023-02-06T09:01:09.501Z,52.16
2023-02-06T09:03:36.779Z,51.53
2023-02-06T09:06:09.949Z,51.21
2023-02-06T09:08:38.543Z,50.94
2023-02-06T09:11:08.447Z,50.33
2023-02-06T09:13:36.738Z,50.49
2023-02-06T09:16:04.273Z,50.72
2023-02-06T09:18:31.234Z,50.90
2023-02-06T09:21:06.662Z,50.63
2023-02-06T09:23:33.665Z,50.47
2023-02-06T09:26:00.910Z,50.33
2023-02-06T09:28:30.246Z,50.20
2023-02-06T09:30:57.507Z,49.88
2023-02-06T09:33:25.306Z,49.43
2023-02-06T09:36:13.850Z,49.74
2023-02-06T09:38:43.655Z,49.06
2023-02-06T09:41:18.561Z,48.15
2023-02-06T09:43:57.954Z,47.69
2023-02-06T09:46:30.855Z,47.93
2023-02-06T09:49:01.636Z,48.14
2023-02-06T09:51:40.704Z,47.86
2023-02-06T09:54:28.067Z,48.13
2023-02-06T09:57:14.995Z,48.44
2023-02-06T09:59:58.272Z,48.15
2023-02-06T10:03:05.131Z,47.82
2023-02-06T10:05:32.022Z,47.72
2023-02-06T10:08:11.531Z,47.91
2023-02-06T10:10:42.103Z,47.81
2023-02-06T10:13:35.490Z,47.64
2023-02-06T10:16:22.364Z,47.68
2023-02-06T10:18:53.625Z,47.97
2023-02-06T10:21:23.818Z,47.76
2023-02-06T10:24:16.709Z,47.25
2023-02-06T10:26:43.589Z,46.97
2023-02-06T10:29:23.259Z,46.67
2023-02-06T10:32:03.238Z,46.41
2023-02-06T10:34:58.921Z,46.30
2023-02-06T10:38:17.160Z,46.39
2023-02-06T10:41:21.239Z,45.14
2023-02-06T10:44:22.702Z,44.05
2023-02-06T10:46:50.561Z,42.83
2023-02-06T10:49:35.712Z,42.66
2023-02-06T10:52:14.219Z,43.10
2023-02-06T10:54:45.775Z,42.74
2023-02-06T10:57:16.029Z,43.26
2023-02-06T10:59:47.492Z,43.69
2023-02-06T11:02:23.163Z,43.84
2023-02-06T11:05:13.703Z,44.02
2023-02-06T11:07:44.592Z,43.82
2023-02-06T11:10:13.843Z,44.12
2023-02-06T11:12:44.057Z,43.83
2023-02-06T11:15:23.418Z,43.91
2023-02-06T11:17:51.395Z,43.80
2023-02-06T11:20:24.157Z,44.97
2023-02-06T11:22:53.479Z,46.79
2023-02-06T11:25:24.664Z,47.77
2023-02-06T11:27:51.622Z,48.23
2023-02-06T11:30:38.068Z,48.58
2023-02-06T11:33:18.194Z,48.84
2023-02-06T11:35:54.283Z,48.69
2023-02-06T11:38:23.978Z,48.29
2023-02-06T11:41:17.561Z,48.49
2023-02-06T11:43:48.559Z,48.09
2023-02-06T11:46:23.359Z,47.60
2023-02-06T11:48:59.165Z,47.16
2023-02-06T11:51:43.853Z,47.07
2023-02-06T11:54:27.929Z,46.89
2023-02-06T11:57:02.789Z,47.11
2023-02-06T11:59:33.982Z,47.32
2023-02-06T12:02:05.148Z,47.85
2023-02-06T12:04:38.029Z,48.17
2023-02-06T12:07:07.964Z,48.55
2023-02-06T12:09:34.884Z,49.07
2023-02-06T12:12:29.414Z,48.65
2023-02-06T12:14:58.591Z,49.06
2023-02-06T12:17:37.249Z,49.02
2023-02-06T12:20:30.897Z,49.29
2023-02-06T12:23:06.884Z,49.36
2023-02-06T12:25:43.908Z,49.27
2023-02-06T12:28:15.220Z,49.05
2023-02-06T12:31:10.359Z,49.05
2023-02-06T12:33:53.446Z,48.63
2023-02-06T12:36:25.222Z,48.39
2023-02-06T12:38:59.657Z,48.32
2023-02-06T12:41:51.003Z,47.56
2023-02-06T12:44:35.573Z,47.00
2023-02-06T12:47:14.106Z,47.14
2023-02-06T12:49:44.251Z,47.45
2023-02-06T12:52:20.733Z,47.62
2023-02-06T12:54:51.409Z,47.67
2023-02-06T12:57:23.420Z,47.46
2023-02-06T13:00:21.288Z,47.49
2023-02-06T13:02:50.974Z,46.92
2023-02-06T13:05:38.571Z,47.02
2023-02-06T13:08:16.057Z,46.85
2023-02-06T13:10:43.087Z,46.53
2023-02-06T13:13:30.849Z,46.25
2023-02-06T13:15:57.761Z,46.14
2023-02-06T13:18:37.263Z,45.74
2023-02-06T13:21:28.985Z,45.28
2023-02-06T13:24:01.941Z,45.07
2023-02-06T13:26:50.906Z,45.12
2023-02-06T13:29:27.535Z,44.79
2023-02-06T13:32:17.979Z,44.88
2023-02-06T13:34:50.215Z,44.85
2023-02-06T13:37:39.934Z,44.95
2023-02-06T13:40:22.073Z,45.02
2023-02-06T13:42:50.519Z,45.14
2023-02-06T13:45:22.367Z,44.96
2023-02-06T13:48:27.060Z,45.00
2023-02-06T13:51:28.991Z,45.18
2023-02-06T13:54:27.065Z,45.44
2023-02-06T13:57:22.127Z,45.33
2023-02-06T13:59:50.177Z,45.17
2023-02-06T14:02:26.976Z,45.29
2023-02-06T14:04:54.104Z,45.50
2023-02-06T14:08:01.690Z,45.52
2023-02-06T14:10:47.466Z,45.42
2023-02-06T14:13:48.577Z,45.67
2023-02-06T14:16:34.694Z,46.02
2023-02-06T14:19:09.378Z,46.30
2023-02-06T14:21:39.380Z,46.30
2023-02-06T14:24:30.425Z,46.49
2023-02-06T14:27:19.513Z,46.67
2023-02-06T14:29:58.370Z,46.62
2023-02-06T14:32:34.628Z,46.86
2023-02-06T14:35:35.797Z,46.90
2023-02-06T14:38:34.867Z,46.75
2023-02-06T14:41:03.563Z,46.82
2023-02-06T14:43:34.182Z,46.95
2023-02-06T14:46:08.336Z,47.15
2023-02-06T14:48:46.930Z,47.50
2023-02-06T14:51:39.176Z,47.54
2023-02-06T14:54:25.456Z,47.96
2023-02-06T14:56:57.417Z,48.17
2023-02-06T14:59:24.600Z,48.34
2023-02-06T15:01:53.766Z,48.47
2023-02-06T15:04:23.789Z,48.81
2023-02-06T15:06:59.203Z,48.80
2023-02-06T15:09:34.155Z,48.87
2023-02-06T15:12:20.062Z,48.87
2023-02-06T15:14:55.400Z,48.82
2023-02-06T15:17:23.186Z,48.91
2023-02-06T15:19:53.284Z,49.03
2023-02-06T15:22:29.219Z,49.26
2023-02-06T15:25:22.555Z,49.22
2023-02-06T15:27:49.642Z,49.29
2023-02-06T15:30:25.923Z,49.33
2023-02-06T15:32:53.791Z,49.25
2023-02-06T15:35:28.741Z,49.35
2023-02-06T15:37:56.473Z,49.68
2023-02-06T15:40:30.929Z,49.70
2023-02-06T15:42:58.234Z,50.01
2023-02-06T15:45:30.491Z,50.00
2023-02-06T15:47:57.729Z,50.16
2023-02-06T15:50:26.735Z,50.15
2023-02-06T15:52:54.676Z,50.08
2023-02-06T15:55:34.468Z,49.93
2023-02-06T15:58:03.493Z,49.72
2023-02-06T16:00:39.860Z,49.44
2023-02-06T16:03:08.469Z,48.84
2023-02-06T16:05:37.668Z,48.60
2023-02-06T16:08:05.132Z,48.43
2023-02-06T16:10:36.549Z,48.48
2023-02-06T16:13:09.035Z,48.19
2023-02-06T16:15:38.320Z,48.15
2023-02-06T16:18:24.204Z,47.86
2023-02-06T16:20:51.264Z,47.75
2023-02-06T16:23:22.213Z,47.42
2023-02-06T16:26:12.337Z,47.22
2023-02-06T16:29:04.051Z,47.25
2023-02-06T16:31:31.728Z,47.42
2023-02-06T16:34:04.673Z,47.51
2023-02-06T16:36:32.046Z,47.36
2023-02-06T16:39:04.840Z,47.44
2023-02-06T16:41:33.962Z,47.44
2023-02-06T16:44:04.501Z,47.70
2023-02-06T16:46:31.765Z,47.56
2023-02-06T16:48:59.511Z,47.75
2023-02-06T16:51:28.019Z,47.95
2023-02-06T16:53:55.396Z,48.02
2023-02-06T16:56:22.444Z,48.00
2023-02-06T16:58:49.898Z,48.11
2023-02-06T17:01:25.199Z,48.06
2023-02-06T17:03:53.923Z,47.89
2023-02-06T17:06:28.221Z,48.05
2023-02-06T17:09:01.508Z,48.13
2023-02-06T17:11:30.306Z,48.29
2023-02-06T17:13:57.300Z,48.21
2023-02-06T17:16:25.590Z,48.20
2023-02-06T17:18:52.751Z,48.30
2023-02-06T17:21:21.027Z,48.09
2023-02-06T17:23:49.146Z,48.39
2023-02-06T17:26:20.427Z,48.37
2023-02-06T17:28:47.608Z,48.43
2023-02-06T17:31:15.440Z,48.50
2023-02-06T17:33:42.498Z,48.39
2023-02-06T17:36:21.504Z,48.39
2023-02-06T17:38:48.862Z,48.43
2023-02-06T17:41:15.900Z,48.38
2023-02-06T17:43:43.285Z,48.16
2023-02-06T17:46:10.686Z,48.36
2023-02-06T17:48:42.165Z,48.45
2023-02-06T17:51:10.600Z,48.53
2023-02-06T17:53:37.529Z,48.66
2023-02-06T17:56:09.002Z,48.55
2023-02-06T17:58:35.968Z,48.60
2023-02-06T18:01:03.237Z,48.50
2023-02-06T18:03:30.269Z,48.51
2023-02-06T18:05:58.801Z,48.53
2023-02-06T18:08:26.409Z,48.52
2023-02-06T18:10:54.100Z,48.56
2023-02-06T18:13:24.217Z,48.67
2023-02-06T18:15:52.508Z,48.88
2023-02-06T18:18:19.681Z,48.87
2023-02-06T18:20:47.024Z,49.32
2023-02-06T18:23:14.167Z,48.99
2023-02-06T18:25:43.434Z,49.07
2023-02-06T18:28:13.448Z,49.20
2023-02-06T18:30:41.488Z,49.16
2023-02-06T18:33:08.598Z,49.15
2023-02-06T18:35:40.073Z,49.03
2023-02-06T18:38:09.847Z,48.86
2023-02-06T18:40:38.379Z,48.83
2023-02-06T18:43:06.601Z,48.79
2023-02-06T18:45:36.481Z,48.71
2023-02-06T18:48:04.756Z,48.67
2023-02-06T18:50:32.008Z,48.74
2023-02-06T18:52:59.651Z,48.61
2023-02-06T18:55:26.540Z,48.69
2023-02-06T18:57:53.815Z,48.67
2023-02-06T19:00:23.366Z,48.60
2023-02-06T19:02:50.705Z,48.75
2023-02-06T19:05:18.888Z,48.95
2023-02-06T19:07:52.874Z,49.29
2023-02-06T19:10:20.215Z,49.32
2023-02-06T19:12:47.363Z,49.52
2023-02-06T19:15:15.003Z,49.39
2023-02-06T19:17:43.049Z,49.37
2023-02-06T19:20:12.855Z,49.46
2023-02-06T19:22:41.776Z,49.32
2023-02-06T19:25:12.584Z,49.28
2023-02-06T19:27:41.079Z,49.39
2023-02-06T19:30:08.576Z,49.51
2023-02-06T19:32:37.300Z,49.12
2023-02-06T19:35:05.401Z,49.32
2023-02-06T19:37:32.772Z,49.18
2023-02-06T19:40:00.049Z,49.25
2023-02-06T19:42:28.460Z,49.19
2023-02-06T19:44:55.414Z,49.55
2023-02-06T19:47:22.707Z,49.24
2023-02-06T19:49:52.364Z,49.29
2023-02-06T19:52:24.361Z,49.36
2023-02-06T19:54:51.690Z,49.46
2023-02-06T19:57:19.009Z,49.72
2023-02-06T19:59:46.743Z,49.86
2023-02-06T20:02:17.120Z,50.00
2023-02-06T20:04:45.906Z,50.18
2023-02-06T20:07:12.812Z,50.29
2023-02-06T20:09:41.654Z,50.21
2023-02-06T20:12:13.731Z,50.22
2023-02-06T20:14:41.937Z,50.40
2023-02-06T20:17:08.855Z,50.52
2023-02-06T20:19:37.797Z,50.46
2023-02-06T20:22:04.854Z,50.69
2023-02-06T20:24:32.205Z,50.67
2023-02-06T20:27:00.900Z,50.79
2023-02-06T20:29:31.401Z,50.76
2023-02-06T20:31:58.751Z,50.94
2023-02-06T20:34:26.826Z,51.03
2023-02-06T20:36:54.389Z,51.03
2023-02-06T20:39:21.390Z,51.12
2023-02-06T20:41:49.288Z,51.12
2023-02-06T20:44:16.927Z,51.07
2023-02-06T20:46:44.415Z,51.00
2023-02-06T20:49:16.241Z,50.91
2023-02-06T20:51:43.200Z,50.81
2023-02-06T20:54:12.675Z,50.97
2023-02-06T20:56:39.845Z,50.78
2023-02-06T20:59:08.276Z,50.84
2023-02-06T21:01:35.469Z,51.16
2023-02-06T21:04:05.061Z,51.17
2023-02-06T21:06:33.294Z,51.31
2023-02-06T21:09:02.771Z,51.56
2023-02-06T21:11:33.740Z,51.62
2023-02-06T21:14:01.882Z,51.65
2023-02-06T21:16:30.004Z,51.71
2023-02-06T21:18:57.436Z,51.70
2023-02-06T21:21:27.720Z,51.57
2023-02-06T21:23:57.327Z,51.38
2023-02-06T21:26:24.751Z,51.51
2023-02-06T21:28:51.744Z,51.43
2023-02-06T21:31:24.235Z,51.73
2023-02-06T21:33:51.386Z,51.76
2023-02-06T21:36:18.415Z,51.90
2023-02-06T21:38:45.654Z,51.88
2023-02-06T21:41:14.709Z,52.04
2023-02-06T21:43:41.554Z,52.04
2023-02-06T21:46:09.295Z,52.16
2023-02-06T21:48:36.729Z,52.25
2023-02-06T21:51:12.594Z,52.15
2023-02-06T21:53:39.624Z,52.30
2023-02-06T21:56:08.242Z,52.17
2023-02-06T21:58:35.669Z,52.03
2023-02-06T22:01:03.133Z,52.06
2023-02-06T22:03:30.519Z,51.92
2023-02-06T22:06:11.283Z,51.84
2023-02-06T22:08:42.809Z,51.88
2023-02-06T22:11:30.058Z,51.80
2023-02-06T22:13:59.200Z,51.79
2023-02-06T22:16:31.110Z,52.05
2023-02-06T22:19:00.273Z,51.71
2023-02-06T22:21:28.398Z,51.91
2023-02-06T22:23:59.460Z,51.94
2023-02-06T22:26:26.590Z,51.87
2023-02-06T22:28:54.403Z,51.72
2023-02-06T22:31:23.446Z,51.90
2023-02-06T22:33:51.277Z,52.07
2023-02-06T22:36:20.884Z,52.13
2023-02-06T22:38:52.066Z,52.21
2023-02-06T22:41:18.982Z,52.06
2023-02-06T22:43:46.035Z,52.25
2023-02-06T22:46:28.119Z,52.44
2023-02-06T22:48:55.273Z,52.36
2023-02-06T22:51:22.378Z,52.52
2023-02-06T22:53:49.279Z,52.47
2023-02-06T22:56:36.152Z,52.35
2023-02-06T22:59:25.864Z,52.53
2023-02-06T23:01:57.696Z,52.68
2023-02-06T23:04:41.389Z,52.90
2023-02-06T23:07:09.399Z,53.06
2023-02-06T23:09:40.940Z,53.39
2023-02-06T23:12:10.994Z,53.60
2023-02-06T23:14:39.621Z,53.76
2023-02-06T23:17:07.841Z,54.01
2023-02-06T23:19:34.881Z,54.24
2023-02-06T23:22:02.473Z,54.25
2023-02-06T23:24:29.496Z,54.48
2023-02-06T23:26:56.333Z,54.56
2023-02-06T23:29:24.114Z,54.85
2023-02-06T23:31:51.665Z,55.07
2023-02-06T23:34:19.525Z,55.28
2023-02-06T23:36:48.207Z,55.39
2023-02-06T23:39:15.473Z,55.65
2023-02-06T23:41:42.817Z,55.68
2023-02-06T23:44:10.070Z,55.80
2023-02-06T23:46:38.142Z,55.98
2023-02-06T23:49:05.959Z,55.99
2023-02-06T23:51:33.293Z,56.13
2023-02-06T23:54:02.895Z,56.15
2023-02-06T23:56:30.198Z,56.45
2023-02-06T23:58:58.180Z,56.47
